LFOP/URO METAR and TAF weather

Enter ICAO airport designator
Station Type Date Time Source
LFOP METAR 2019/12/10 06:00 UTC NOAA

LFOP 100600Z AUTO 17006KT CAVOK 00/M00 Q1026


Station Type Date Time Source
LFOP Decoded METAR 2019/12/10 06:00 UTC NOAA

Rouen, France (LFOP) 49-23N 001-11E 157M
Dec 10, 2019 - 01:00 AM EST / 2019.12.10 0600 UTC
Wind: from the S (170 degrees) at 7 MPH (6 KT):0
Visibility: greater than 7 mile(s):0
Temperature: 32 F (0 C)
Windchill: 24 F (-4 C):1
Dew Point: 32 F (0 C)
Relative Humidity: 100%
Pressure (altimeter): 30.30 in. Hg (1026 hPa)
ob: LFOP 100600Z AUTO 17006KT CAVOK 00/M00 Q1026
cycle: 6

Station Type Date Time Source
LFOP TAF 2019/12/09 21:18 UTC NOAA

TAF
AMD TAF
AMD LFOP 092100Z 0921/1018 CNL

Example: see airport list